Time;durP1;ratioP1;P1;durP2;ratioP2;P2;SDS_P1;SDS_P2;PMS_P1;PMS_P2;Temp;Humidity;BMP_temperature;BMP_pressure;BME280_temperature;BME280_humidity;BME280_pressure;Samples;Min_cycle;Max_cycle;Signal;HPM_P1;HPM_P2
2022/01/03 00:00:14;;;;;;;90.18;57.50;;;204.80;2252.80;;;;;;5015782;28;20120;-89
2022/01/03 00:02:40;;;;;;;86.95;56.30;;;204.80;2252.80;;;;;;5017184;28;20033;-90
2022/01/03 00:05:07;;;;;;;84.63;57.50;;;204.80;2252.80;;;;;;5017759;28;20057;-87
2022/01/03 00:07:43;;;;;;;84.00;56.30;;;180.10;2252.80;;;;;;5017251;28;20029;-88
2022/01/03 00:10:12;;;;;;;81.03;53.75;;;180.10;2252.80;;;;;;5004027;28;20034;-88
2022/01/03 00:12:39;;;;;;;77.70;53.10;;;180.10;2252.80;;;;;;5002543;28;20030;-89
2022/01/03 00:15:08;;;;;;;79.18;50.95;;;204.80;2252.80;;;;;;5013675;28;20115;-89
2022/01/03 00:17:34;;;;;;;83.18;51.55;;;204.80;2252.80;;;;;;5016495;28;20037;-87
2022/01/03 00:20:00;;;;;;;73.55;49.35;;;204.80;2252.80;;;;;;5017321;28;20480;-88
2022/01/03 00:22:32;;;;;;;80.22;50.38;;;204.90;2252.80;;;;;;5016928;28;20025;-89
2022/01/03 00:25:05;;;;;;;74.82;50.10;;;204.90;2252.80;;;;;;5035392;28;20026;-90
2022/01/03 00:28:02;;;;;;;75.38;49.92;;;204.80;2252.80;;;;;;5017130;28;20032;-90
2022/01/03 00:30:33;;;;;;;77.03;48.47;;;204.80;2252.80;;;;;;5016338;28;20025;-87
2022/01/03 00:33:01;;;;;;;68.75;46.63;;;180.10;2252.80;;;;;;5017727;28;20168;-91
2022/01/03 00:35:29;;;;;;;74.35;48.70;;;180.10;2252.80;;;;;;5029194;28;20044;-88
2022/01/03 00:37:57;;;;;;;71.15;46.90;;;180.10;2252.80;;;;;;5008629;28;20072;-89
2022/01/03 00:40:25;;;;;;;72.80;46.42;;;180.10;2252.80;;;;;;5008677;28;20053;-88
2022/01/03 00:42:52;;;;;;;65.88;43.25;;;180.10;2252.80;;;;;;5011559;28;20048;-88
2022/01/03 00:45:18;;;;;;;64.60;44.28;;;180.10;2252.80;;;;;;5007393;28;20065;-90
2022/01/03 00:47:45;;;;;;;61.33;42.83;;;180.10;2252.80;;;;;;5000655;28;20033;-89
2022/01/03 00:50:15;;;;;;;59.22;40.63;;;180.10;2252.80;;;;;;5000174;28;20022;-90
2022/01/03 00:52:42;;;;;;;59.97;41.78;;;180.10;2252.80;;;;;;5000741;28;20037;-91
2022/01/03 00:55:08;;;;;;;55.58;40.08;;;180.00;2252.80;;;;;;4999831;28;20076;-89
2022/01/03 00:57:48;;;;;;;57.88;40.45;;;180.10;2252.80;;;;;;4999960;28;20041;-90
2022/01/03 01:00:15;;;;;;;59.75;39.22;;;179.90;2252.80;;;;;;5001010;28;20057;-89
2022/01/03 01:02:54;;;;;;;57.47;40.63;;;179.90;2252.80;;;;;;5000429;28;20525;-89
2022/01/03 01:05:22;;;;;;;58.33;40.17;;;179.90;2252.80;;;;;;4999988;28;20026;-90
2022/01/03 01:07:54;;;;;;;64.72;41.50;;;179.90;2252.80;;;;;;5000570;28;20053;-89
2022/01/03 01:10:21;;;;;;;61.33;40.88;;;180.00;2252.80;;;;;;4999973;28;20431;-90
2022/01/03 01:12:47;;;;;;;62.00;41.92;;;180.00;2252.80;;;;;;5000366;28;20032;-90
2022/01/03 01:15:14;;;;;;;59.30;41.33;;;179.80;2252.80;;;;;;5000225;28;20022;-89
2022/01/03 01:17:42;;;;;;;62.03;41.67;;;179.80;2252.80;;;;;;5000448;28;20037;-90
2022/01/03 01:20:09;;;;;;;58.47;41.20;;;179.80;2252.80;;;;;;4999837;28;20415;-91
2022/01/03 01:22:35;;;;;;;65.82;41.85;;;179.90;2252.80;;;;;;4999782;28;20021;-89
2022/01/03 01:27:50;;;;;;;63.28;42.40;;;179.90;2252.80;;;;;;5017394;28;20467;-89
2022/01/03 01:30:20;;;;;;;59.70;41.53;;;179.90;2252.80;;;;;;4999290;28;20042;-89
2022/01/03 01:33:03;;;;;;;56.47;37.88;;;179.80;2252.80;;;;;;4999557;28;20025;-90
2022/01/03 01:35:42;;;;;;;66.07;41.97;;;179.80;2252.80;;;;;;5000595;28;20093;-90
2022/01/03 01:38:12;;;;;;;60.78;41.72;;;179.80;2252.80;;;;;;4999425;28;20398;-90
2022/01/03 01:40:49;;;;;;;59.15;40.35;;;179.80;2252.80;;;;;;4999312;28;20049;-90
2022/01/03 01:43:24;;;;;;;60.10;40.10;;;179.80;2252.80;;;;;;4999320;28;20030;-90
2022/01/03 01:45:51;;;;;;;60.25;41.22;;;179.80;2252.80;;;;;;4999459;28;20049;-90
2022/01/03 01:48:22;;;;;;;59.13;39.03;;;179.80;2252.80;;;;;;4998948;28;20053;-91
2022/01/03 01:50:51;;;;;;;61.65;41.15;;;179.80;2252.80;;;;;;4999176;28;20088;-89
2022/01/03 01:53:27;;;;;;;63.25;40.85;;;179.70;2252.80;;;;;;4999475;28;20033;-88
2022/01/03 01:55:56;;;;;;;58.95;41.03;;;179.70;2252.80;;;;;;4999134;28;20021;-91
2022/01/03 01:58:29;;;;;;;57.53;41.75;;;179.70;2252.80;;;;;;4999152;28;20112;-90
2022/01/03 02:01:07;;;;;;;68.15;44.08;;;179.60;2252.80;;;;;;4999273;28;20080;-90
2022/01/03 02:03:47;;;;;;;66.72;42.90;;;179.60;2252.80;;;;;;4999159;28;20026;-90
2022/01/03 02:06:34;;;;;;;64.63;42.22;;;179.60;2252.80;;;;;;4998682;28;20022;-90
2022/01/03 02:09:07;;;;;;;64.82;41.20;;;179.60;2252.80;;;;;;4999949;28;20026;-88
2022/01/03 02:11:45;;;;;;;60.42;39.75;;;179.70;2252.80;;;;;;4999621;28;20053;-92
2022/01/03 02:14:11;;;;;;;62.83;40.80;;;179.70;2252.80;;;;;;5000013;28;20025;-90
2022/01/03 02:16:38;;;;;;;63.63;41.33;;;179.60;2252.80;;;;;;4998748;28;20084;-91
2022/01/03 02:19:04;;;;;;;55.90;38.45;;;179.60;2252.80;;;;;;5000403;28;20455;-91
2022/01/03 02:21:30;;;;;;;62.60;40.97;;;179.60;2252.80;;;;;;4999324;28;20056;-91
2022/01/03 02:23:56;;;;;;;58.03;40.03;;;179.60;2252.80;;;;;;4999126;28;20116;-89
2022/01/03 02:26:22;;;;;;;57.67;39.03;;;179.60;2252.80;;;;;;4998736;28;20042;-91
2022/01/03 02:28:48;;;;;;;57.25;38.40;;;179.50;2252.80;;;;;;4998858;28;20026;-91
2022/01/03 02:31:17;;;;;;;59.80;39.92;;;179.50;2252.80;;;;;;4998268;28;20026;-90
2022/01/03 02:33:44;;;;;;;56.58;39.72;;;179.50;2252.80;;;;;;4998171;28;20033;-90
2022/01/03 02:36:10;;;;;;;57.53;39.03;;;179.50;2252.80;;;;;;4998279;28;20059;-89
2022/01/03 02:38:37;;;;;;;56.80;39.45;;;179.50;2252.80;;;;;;4999053;28;20037;-89
2022/01/03 02:41:03;;;;;;;56.13;39.10;;;179.50;2252.80;;;;;;4998754;28;20022;-89
2022/01/03 02:43:29;;;;;;;59.28;40.38;;;179.50;2252.80;;;;;;4998370;28;20037;-89
2022/01/03 02:45:55;;;;;;;57.17;39.60;;;179.50;2252.80;;;;;;4997751;28;20140;-90
2022/01/03 02:48:22;;;;;;;56.65;38.95;;;179.50;2252.80;;;;;;4998040;28;20068;-90
2022/01/03 02:50:48;;;;;;;56.22;37.97;;;179.50;2252.80;;;;;;4997748;28;20029;-91
2022/01/03 02:53:15;;;;;;;54.97;37.50;;;179.50;2252.80;;;;;;4998127;28;20509;-92
2022/01/03 02:55:41;;;;;;;53.47;37.97;;;179.50;2252.80;;;;;;4997909;28;20025;-92
2022/01/03 02:58:07;;;;;;;54.13;38.20;;;179.60;2252.80;;;;;;4998900;28;20117;-89
2022/01/03 03:00:56;;;;;;;52.97;36.90;;;179.60;2252.80;;;;;;4998129;28;20037;-91
2022/01/03 03:03:24;;;;;;;53.70;36.72;;;179.70;2252.80;;;;;;4996170;28;20536;-91
2022/01/03 03:05:50;;;;;;;49.80;36.20;;;179.70;2252.80;;;;;;4998188;28;20028;-89
2022/01/03 03:08:17;;;;;;;61.83;37.38;;;179.70;2252.80;;;;;;4998229;28;20032;-90
2022/01/03 03:10:44;;;;;;;52.72;37.55;;;179.70;2252.80;;;;;;4998506;28;20026;-90
2022/01/03 03:13:10;;;;;;;54.67;37.50;;;179.70;2252.80;;;;;;4998044;28;20018;-91
2022/01/03 03:15:36;;;;;;;52.35;36.60;;;179.70;2252.80;;;;;;4998463;28;20116;-91
2022/01/03 03:18:02;;;;;;;50.67;36.30;;;179.70;2252.80;;;;;;4997810;28;20037;-90
2022/01/03 03:20:31;;;;;;;49.65;36.80;;;179.70;2252.80;;;;;;4997549;28;20058;-89
2022/01/03 03:22:59;;;;;;;54.78;38.45;;;179.70;2252.80;;;;;;4997436;28;20075;-90
2022/01/03 03:25:27;;;;;;;53.08;37.88;;;179.70;2252.80;;;;;;4997720;28;20029;-90
2022/01/03 03:28:03;;;;;;;55.67;38.25;;;179.70;2252.80;;;;;;4997276;28;20026;-88
2022/01/03 03:30:33;;;;;;;53.35;37.42;;;179.70;2252.80;;;;;;4997412;28;20030;-88
2022/01/03 03:33:13;;;;;;;57.38;37.95;;;179.80;2252.80;;;;;;4998148;28;20037;-91
2022/01/03 03:35:40;;;;;;;54.00;39.10;;;179.70;2252.80;;;;;;4997439;28;20033;-89
2022/01/03 03:38:06;;;;;;;53.10;37.72;;;179.70;2252.80;;;;;;4997355;28;20390;-90
2022/01/03 03:40:32;;;;;;;50.30;38.08;;;179.80;2252.80;;;;;;4997462;28;20065;-91
2022/01/03 03:42:58;;;;;;;52.10;38.15;;;179.80;2252.80;;;;;;4997229;28;20479;-90
2022/01/03 03:45:25;;;;;;;51.65;38.05;;;179.70;2252.80;;;;;;4997057;28;20121;-90
2022/01/03 03:47:51;;;;;;;55.05;39.67;;;179.70;2252.80;;;;;;4997281;28;20025;-91
2022/01/03 03:50:19;;;;;;;51.78;38.58;;;179.70;2252.80;;;;;;4997084;28;20018;-89
2022/01/03 03:52:45;;;;;;;52.42;37.70;;;179.60;2252.80;;;;;;4997393;28;20030;-90
2022/01/03 03:55:11;;;;;;;51.80;37.90;;;179.60;2252.80;;;;;;4997249;28;20022;-90
2022/01/03 03:57:37;;;;;;;55.13;39.60;;;179.70;2252.80;;;;;;4997085;28;20033;-91
2022/01/03 04:00:06;;;;;;;54.00;39.47;;;179.60;2252.80;;;;;;4997179;28;20438;-90
2022/01/03 04:02:32;;;;;;;53.67;39.55;;;179.60;2252.80;;;;;;4997623;28;20087;-90
2022/01/03 04:05:00;;;;;;;57.30;40.30;;;179.60;2252.80;;;;;;4997291;28;20530;-89
2022/01/03 04:07:26;;;;;;;53.58;40.70;;;179.40;2252.80;;;;;;4997312;28;20113;-91
2022/01/03 04:09:52;;;;;;;56.78;40.92;;;179.40;2252.80;;;;;;4998351;28;20077;-91
2022/01/03 04:12:17;;;;;;;60.55;42.28;;;179.40;2252.80;;;;;;5000752;28;20120;-91
2022/01/03 04:14:43;;;;;;;64.30;42.80;;;179.40;2252.80;;;;;;5001310;28;20030;-92
2022/01/03 04:17:10;;;;;;;62.08;41.97;;;179.40;2252.80;;;;;;5001788;28;20041;-90
2022/01/03 04:19:36;;;;;;;57.08;41.75;;;179.40;2252.80;;;;;;5001132;28;20028;-90
2022/01/03 04:22:02;;;;;;;60.35;43.67;;;179.40;2252.80;;;;;;5001054;28;20103;-91
2022/01/03 04:24:28;;;;;;;65.78;45.95;;;179.40;2252.80;;;;;;5001400;28;20497;-91
2022/01/03 04:26:54;;;;;;;61.38;44.83;;;179.40;2252.80;;;;;;5000930;28;20022;-91
2022/01/03 04:29:20;;;;;;;70.43;44.95;;;179.40;2252.80;;;;;;5000300;28;20379;-91
2022/01/03 04:31:46;;;;;;;61.67;44.63;;;179.50;2252.80;;;;;;5000364;28;20034;-91
2022/01/03 04:34:13;;;;;;;69.13;45.42;;;179.50;2252.80;;;;;;5001343;28;20045;-91
2022/01/03 04:36:40;;;;;;;66.85;46.20;;;179.50;2252.80;;;;;;5000748;28;20044;-91
2022/01/03 04:39:06;;;;;;;65.32;46.20;;;179.50;2252.80;;;;;;5000768;28;20549;-90
2022/01/03 04:41:33;;;;;;;62.38;46.53;;;179.50;2252.80;;;;;;5000636;28;20030;-91
2022/01/03 04:44:00;;;;;;;67.22;46.05;;;179.50;2252.80;;;;;;5000189;28;20026;-90
2022/01/03 04:46:26;;;;;;;63.92;45.63;;;179.50;2252.80;;;;;;5000124;28;20487;-91
2022/01/03 04:48:53;;;;;;;63.40;46.78;;;179.50;2252.80;;;;;;5000843;28;20382;-91
2022/01/03 04:51:19;;;;;;;65.30;45.05;;;179.50;2252.80;;;;;;5000368;28;20030;-89
2022/01/03 04:53:44;;;;;;;66.68;44.25;;;179.60;2252.80;;;;;;5000142;28;20030;-91
2022/01/03 04:56:13;;;;;;;69.47;45.75;;;179.60;2252.80;;;;;;4999847;28;20061;-91
2022/01/03 04:58:40;;;;;;;63.88;42.85;;;179.70;2252.80;;;;;;5000040;28;20486;-90
2022/01/03 05:01:06;;;;;;;62.22;42.10;;;179.70;2252.80;;;;;;5000616;28;20034;-90
2022/01/03 05:03:33;;;;;;;64.55;45.10;;;179.80;2252.80;;;;;;5000056;28;20030;-90
2022/01/03 05:06:01;;;;;;;64.00;44.67;;;179.80;2252.80;;;;;;5000406;28;20037;-88
2022/01/03 05:08:28;;;;;;;80.10;48.50;;;179.70;2252.80;;;;;;4999871;28;20108;-90
2022/01/03 05:10:55;;;;;;;78.80;51.22;;;179.80;2252.80;;;;;;4999823;28;20079;-87
2022/01/03 05:13:20;;;;;;;70.88;48.25;;;179.80;2252.80;;;;;;5000212;28;20041;-91
2022/01/03 05:15:47;;;;;;;72.38;48.17;;;179.80;2252.80;;;;;;4999755;28;20034;-89
2022/01/03 05:18:13;;;;;;;70.43;46.20;;;179.90;2252.80;;;;;;4999860;28;20033;-90
2022/01/03 05:20:39;;;;;;;69.45;46.58;;;179.80;2252.80;;;;;;4999812;28;20037;-90
2022/01/03 05:23:05;;;;;;;79.03;51.65;;;179.80;2252.80;;;;;;4999512;28;20465;-90
2022/01/03 05:25:32;;;;;;;75.97;50.42;;;179.80;2252.80;;;;;;4999555;28;20018;-91
2022/01/03 05:27:58;;;;;;;71.47;49.90;;;179.80;2252.80;;;;;;4999937;28;20022;-89
2022/01/03 05:30:24;;;;;;;95.13;63.05;;;179.80;2252.80;;;;;;4999338;28;20133;-91
2022/01/03 05:32:50;;;;;;;112.40;72.63;;;179.80;2252.80;;;;;;4999576;28;20052;-91
2022/01/03 05:35:16;;;;;;;88.60;57.10;;;179.70;2252.80;;;;;;4999440;28;20095;-90
2022/01/03 05:37:42;;;;;;;83.82;56.15;;;179.70;2252.80;;;;;;5000418;28;20490;-90
2022/01/03 05:40:08;;;;;;;85.68;56.45;;;179.70;2252.80;;;;;;4999281;28;20018;-90
2022/01/03 05:42:34;;;;;;;83.13;54.03;;;179.70;2252.80;;;;;;4999426;28;20033;-90
2022/01/03 05:45:00;;;;;;;77.10;51.10;;;179.70;2252.80;;;;;;4998956;28;20021;-91
2022/01/03 05:47:26;;;;;;;73.65;51.38;;;179.60;2252.80;;;;;;4999087;28;20477;-91
2022/01/03 05:49:53;;;;;;;80.32;54.25;;;179.50;2252.80;;;;;;4998978;28;20033;-92
2022/01/03 05:52:19;;;;;;;76.97;53.22;;;179.50;2252.80;;;;;;4998833;28;20021;-91
2022/01/03 05:54:45;;;;;;;77.82;53.42;;;179.50;2252.80;;;;;;4998936;28;20029;-91
2022/01/03 05:57:11;;;;;;;84.53;55.83;;;179.50;2252.80;;;;;;4999488;28;20372;-91
2022/01/03 05:59:37;;;;;;;82.35;53.50;;;179.40;2252.80;;;;;;4999262;28;20125;-90
2022/01/03 06:02:04;;;;;;;84.50;55.97;;;179.40;2252.80;;;;;;4998926;28;20022;-92
2022/01/03 06:05:05;;;;;;;87.07;55.63;;;179.50;2252.80;;;;;;4999087;28;20029;-90
2022/01/03 06:07:23;;;;;;;77.75;52.17;;;179.50;2252.80;;;;;;5012492;28;20391;-91
2022/01/03 06:09:49;;;;;;;80.72;52.40;;;179.50;2252.80;;;;;;4998858;28;20029;-91
2022/01/03 06:12:17;;;;;;;72.68;51.55;;;179.50;2252.80;;;;;;4998674;28;20426;-91
2022/01/03 06:14:44;;;;;;;72.93;50.13;;;179.50;2252.80;;;;;;4999253;28;20026;-91
2022/01/03 06:17:11;;;;;;;73.22;49.42;;;179.60;2252.80;;;;;;4998394;28;20056;-91
2022/01/03 06:19:38;;;;;;;81.97;51.70;;;179.90;2252.80;;;;;;4999495;28;20030;-91
2022/01/03 06:22:08;;;;;;;76.88;51.13;;;179.80;2252.80;;;;;;4999148;28;20479;-91
2022/01/03 06:24:38;;;;;;;75.60;51.65;;;179.80;2252.80;;;;;;4999389;28;20037;-91
2022/01/03 06:27:05;;;;;;;85.45;56.63;;;179.80;2252.80;;;;;;4998956;28;20167;-90
2022/01/03 06:29:32;;;;;;;96.28;74.53;;;179.80;2252.80;;;;;;4999095;28;20083;-90
2022/01/03 06:31:58;;;;;;;86.15;60.20;;;179.80;2252.80;;;;;;4998316;28;20029;-90
2022/01/03 06:34:24;;;;;;;81.95;59.08;;;179.80;2252.80;;;;;;4997663;28;20112;-91
2022/01/03 06:36:50;;;;;;;77.28;53.40;;;179.80;2252.80;;;;;;4998145;28;20040;-91
2022/01/03 06:39:16;;;;;;;83.47;56.67;;;179.80;2252.80;;;;;;4998474;28;20053;-91
2022/01/03 06:41:44;;;;;;;95.00;61.80;;;179.80;2252.80;;;;;;4998668;28;20050;-91
2022/01/03 06:44:11;;;;;;;96.85;64.70;;;179.80;2252.80;;;;;;4997998;28;20026;-91
2022/01/03 06:46:37;;;;;;;101.45;69.05;;;180.00;2252.80;;;;;;4997668;28;20132;-90
2022/01/03 06:49:05;;;;;;;99.80;67.68;;;179.90;2252.80;;;;;;4997926;28;20068;-91
2022/01/03 06:51:34;;;;;;;111.20;75.97;;;179.90;2252.80;;;;;;4997709;28;20034;-91
2022/01/03 06:54:06;;;;;;;110.60;75.47;;;179.90;2252.80;;;;;;4997666;28;20471;-89
2022/01/03 06:56:32;;;;;;;113.68;76.90;;;179.90;2252.80;;;;;;4997612;28;20048;-90
2022/01/03 06:58:58;;;;;;;94.10;64.38;;;179.90;2252.80;;;;;;4997702;28;20029;-91
2022/01/03 07:01:24;;;;;;;88.15;59.83;;;179.80;2252.80;;;;;;4997528;28;20064;-91
2022/01/03 07:03:50;;;;;;;90.57;63.88;;;179.80;2252.80;;;;;;4997806;28;20034;-91
2022/01/03 07:06:16;;;;;;;92.45;64.63;;;179.90;2252.80;;;;;;4997660;28;20036;-90
2022/01/03 07:08:42;;;;;;;97.57;66.45;;;179.90;2252.80;;;;;;4998289;28;20379;-91
2022/01/03 07:11:08;;;;;;;101.80;66.97;;;180.00;2252.80;;;;;;4997575;28;20037;-91
2022/01/03 07:13:43;;;;;;;99.55;68.90;;;180.10;2252.80;;;;;;4997198;28;20030;-91
2022/01/03 07:19:05;;;;;;;;;;;205.00;2252.80;;;;;;5016195;28;20379;-90
2022/01/03 07:21:33;;;;;;;111.80;72.32;;;205.00;2252.80;;;;;;4998381;28;20380;-90
2022/01/03 07:23:59;;;;;;;113.15;74.90;;;205.00;2252.80;;;;;;4997967;28;20026;-87
2022/01/03 07:26:26;;;;;;;116.65;73.18;;;205.00;2252.80;;;;;;4998033;28;20497;-90
2022/01/03 07:28:53;;;;;;;103.97;71.97;;;205.10;2252.80;;;;;;4997308;28;20018;-90
2022/01/03 07:31:19;;;;;;;106.53;72.97;;;204.90;2252.80;;;;;;4997544;28;20061;-89
2022/01/03 07:33:46;;;;;;;111.45;73.28;;;205.00;2252.80;;;;;;4998659;28;20036;-88
2022/01/03 07:36:12;;;;;;;110.72;73.60;;;205.10;2252.80;;;;;;4998602;28;20068;-90
2022/01/03 07:38:38;;;;;;;110.47;77.63;;;205.20;2252.80;;;;;;5015525;28;20077;-89
2022/01/03 07:41:05;;;;;;;112.30;77.57;;;205.20;2252.80;;;;;;4998763;28;20022;-90
2022/01/03 07:43:32;;;;;;;112.22;78.13;;;205.20;2252.80;;;;;;4999050;28;20026;-91
2022/01/03 07:45:58;;;;;;;123.28;84.63;;;205.20;2252.80;;;;;;5002823;28;20046;-89
2022/01/03 07:48:24;;;;;;;154.32;106.72;;;205.30;2252.80;;;;;;5002196;28;20034;-90
2022/01/03 07:50:50;;;;;;;159.25;108.40;;;205.30;2252.80;;;;;;5003109;28;20030;-90
2022/01/03 07:53:16;;;;;;;160.27;109.70;;;205.30;2252.80;;;;;;5003633;28;20044;-91
2022/01/03 07:55:41;;;;;;;168.38;112.10;;;205.30;2252.80;;;;;;5002345;28;20028;-91
2022/01/03 07:58:07;;;;;;;158.75;103.28;;;205.30;2252.80;;;;;;5002484;28;20124;-89
2022/01/03 08:00:33;;;;;;;146.02;98.03;;;205.30;2252.80;;;;;;5002800;28;20080;-89
2022/01/03 08:02:59;;;;;;;147.55;96.13;;;205.40;2252.80;;;;;;5002255;28;20072;-91
2022/01/03 08:05:26;;;;;;;135.77;92.05;;;205.40;2252.80;;;;;;5001769;28;20101;-91
2022/01/03 08:07:52;;;;;;;135.40;90.53;;;205.40;2252.80;;;;;;5002439;28;20032;-90
2022/01/03 08:10:20;;;;;;;130.13;92.57;;;205.50;2252.80;;;;;;5007184;28;20026;-87
2022/01/03 08:12:48;;;;;;;130.27;87.95;;;205.60;2252.80;;;;;;5018889;28;20025;-89
2022/01/03 08:15:13;;;;;;;114.75;79.65;;;205.70;2252.80;;;;;;5012113;28;20029;-88
2022/01/03 08:17:39;;;;;;;111.95;76.68;;;230.40;2252.80;;;;;;5011662;28;20034;-90
2022/01/03 08:20:06;;;;;;;96.38;69.68;;;230.40;2252.80;;;;;;5011741;28;20101;-88
2022/01/03 08:22:33;;;;;;;101.70;68.68;;;230.50;2252.80;;;;;;5007215;28;20030;-90
2022/01/03 08:24:58;;;;;;;100.13;67.70;;;230.60;2252.80;;;;;;5003517;28;20021;-88
2022/01/03 08:27:24;;;;;;;89.22;60.83;;;230.80;2252.80;;;;;;5010272;28;20430;-87
2022/01/03 08:29:50;;;;;;;82.13;58.95;;;230.90;2252.80;;;;;;5009719;28;20386;-90
2022/01/03 08:32:16;;;;;;;81.43;56.25;;;230.90;2252.80;;;;;;5011431;28;20034;-88
2022/01/03 08:34:42;;;;;;;79.25;54.88;;;230.80;2252.80;;;;;;5008996;28;20022;-88
2022/01/03 08:37:07;;;;;;;85.47;58.13;;;230.90;2252.80;;;;;;5011473;28;20030;-87
2022/01/03 08:39:34;;;;;;;91.15;57.55;;;230.90;2252.80;;;;;;5012103;28;20493;-87
2022/01/03 08:41:59;;;;;;;78.78;54.78;;;231.00;2252.80;;;;;;5011914;28;20030;-89
2022/01/03 08:44:25;;;;;;;79.13;52.17;;;231.00;2252.80;;;;;;5009450;28;20025;-89
2022/01/03 08:46:51;;;;;;;104.80;61.97;;;231.10;2252.80;;;;;;5010718;28;21275;-87
2022/01/03 08:49:17;;;;;;;87.32;53.28;;;231.00;2252.80;;;;;;5008180;28;20021;-88
2022/01/03 08:51:43;;;;;;;97.95;59.90;;;231.10;2252.80;;;;;;5001584;28;20121;-88
2022/01/03 08:54:10;;;;;;;95.80;59.17;;;231.10;2252.80;;;;;;5020774;28;20478;-89
2022/01/03 08:56:38;;;;;;;89.57;54.50;;;231.10;2252.80;;;;;;5020147;28;20037;-89
2022/01/03 08:59:04;;;;;;;78.63;50.97;;;231.20;2252.80;;;;;;5015646;28;20029;-90
2022/01/03 09:01:29;;;;;;;80.72;51.50;;;231.20;2252.80;;;;;;5010296;28;20021;-90
2022/01/03 09:03:56;;;;;;;76.35;48.13;;;;;;;;;;5001803;28;20030;-90
2022/01/03 09:06:22;;;;;;;69.68;44.35;;;256.20;2252.80;;;;;;5000833;28;20100;-90
2022/01/03 09:08:48;;;;;;;55.15;36.33;;;256.10;2252.80;;;;;;4999886;28;20474;-89
2022/01/03 09:11:15;;;;;;;51.47;32.55;;;256.30;2252.80;;;;;;5000752;28;20056;-93
2022/01/03 09:13:41;;;;;;;46.22;31.58;;;256.50;2252.80;;;;;;5001110;28;20022;-90
2022/01/03 09:16:07;;;;;;;36.63;26.90;;;256.70;2252.80;;;;;;4999625;28;20030;-93
2022/01/03 09:18:35;;;;;;;38.28;26.73;;;256.80;2252.80;;;;;;5010930;28;20037;-89
2022/01/03 09:21:01;;;;;;;42.58;26.67;;;281.70;2278.40;;;;;;5003857;28;20037;-87
2022/01/03 09:23:31;;;;;;;58.47;37.28;;;281.90;2278.40;;;;;;4999054;28;20117;-87
2022/01/03 09:31:38;;;;;;;74.22;48.35;;;282.30;2278.40;;;;;;4969915;28;20073;-88
2022/01/03 09:34:06;;;;;;;55.28;34.17;;;282.20;2278.40;;;;;;4975353;28;20573;-85
2022/01/03 09:36:33;;;;;;;51.13;34.28;;;282.10;2278.40;;;;;;4975078;28;20038;-82
2022/01/03 09:39:01;;;;;;;53.55;34.78;;;282.10;2278.40;;;;;;4957300;28;20039;-88
2022/01/03 09:41:27;;;;;;;54.30;35.53;;;282.10;2278.40;;;;;;4956121;28;20039;-85
2022/01/03 09:44:01;;;;;;;65.03;41.05;;;282.20;2278.40;;;;;;4968807;28;20524;-86
2022/01/03 09:46:32;;;;;;;58.75;38.88;;;282.20;2278.40;;;;;;4967390;28;20062;-88
2022/01/03 09:48:59;;;;;;;46.72;31.38;;;282.30;2278.40;;;;;;4972317;28;20024;-89
2022/01/03 09:51:27;;;;;;;48.20;31.58;;;282.40;2278.40;;;;;;4956075;29;20027;-88
2022/01/03 09:53:56;;;;;;;33.92;24.88;;;282.50;2278.40;;;;;;4955951;28;20050;-87
2022/01/03 09:56:23;;;;;;;35.53;23.88;;;282.40;2252.80;;;;;;4956182;29;20034;-89
2022/01/03 09:58:50;;;;;;;38.78;24.35;;;282.40;2252.80;;;;;;4962425;28;20035;-89
2022/01/03 10:01:16;;;;;;;37.83;24.05;;;282.40;2278.40;;;;;;4958923;28;20090;-85
2022/01/03 10:03:47;;;;;;;38.25;23.98;;;282.30;2278.40;;;;;;4956651;29;20134;-89
2022/01/03 10:06:17;;;;;;;37.15;23.13;;;282.30;2278.40;;;;;;4956252;29;20114;-89
2022/01/03 10:08:44;;;;;;;35.83;22.67;;;282.30;2278.40;;;;;;4997168;28;20128;-92
2022/01/03 10:11:10;;;;;;;34.42;20.92;;;282.40;2278.40;;;;;;5006712;28;20025;-88
2022/01/03 10:13:36;;;;;;;30.80;19.85;;;282.40;2278.40;;;;;;5005458;28;20030;-90
2022/01/03 10:16:02;;;;;;;33.08;22.48;;;282.50;2252.80;;;;;;5008508;28;20022;-89
2022/01/03 10:18:28;;;;;;;35.60;23.67;;;307.20;2304.00;;;;;;5006363;28;20582;-88
2022/01/03 10:20:56;;;;;;;33.55;23.95;;;307.20;2304.00;;;;;;5017111;28;20104;-88
2022/01/03 10:23:22;;;;;;;36.47;25.33;;;307.40;2304.00;;;;;;5011577;28;20089;-87
2022/01/03 10:25:49;;;;;;;45.72;28.52;;;307.70;2278.40;;;;;;5017216;28;20378;-85
2022/01/03 10:28:28;;;;;;;49.80;29.38;;;307.90;2252.80;;;;;;5018701;28;20531;-86
2022/01/03 10:30:55;;;;;;;50.30;31.45;;;332.80;2252.80;;;;;;5018189;28;20466;-85
2022/01/03 10:33:24;;;;;;;58.10;35.30;;;332.80;2227.20;;;;;;5018551;28;20351;-90
2022/01/03 10:35:56;;;;;;;53.85;34.30;;;332.80;2252.80;;;;;;5017813;28;20374;-90
2022/01/03 10:38:36;;;;;;;57.35;33.90;;;332.90;2252.80;;;;;;5017914;28;20377;-88
2022/01/03 10:41:16;;;;;;;53.03;35.17;;;332.90;2252.80;;;;;;5018015;28;20343;-86
2022/01/03 10:43:50;;;;;;;47.42;30.27;;;333.00;2252.80;;;;;;5018456;28;20092;-89
2022/01/03 10:46:20;;;;;;;48.88;32.60;;;333.00;2227.20;;;;;;5017603;28;20397;-86
2022/01/03 10:48:48;;;;;;;50.45;30.13;;;333.40;2124.80;;;;;;5017490;28;20080;-85
2022/01/03 10:51:25;;;;;;;40.25;24.92;;;359.00;2022.40;;;;;;5017260;28;20045;-86
2022/01/03 10:53:54;;;;;;;33.25;21.92;;;384.40;1843.20;;;;;;5017278;28;20442;-84
2022/01/03 10:56:33;;;;;;;31.13;21.00;;;410.10;1715.20;;;;;;5017348;28;20421;-90
2022/01/03 10:59:15;;;;;;;43.58;27.00;;;409.80;1715.20;;;;;;5018058;28;20377;-84
2022/01/03 11:01:48;;;;;;;35.33;23.20;;;409.70;1817.60;;;;;;5017733;28;20435;-86
2022/01/03 11:13:16;;;;;;;35.35;21.73;;;384.00;1868.80;;;;;;5034860;28;20156;-84
2022/01/03 11:15:52;;;;;;;29.73;19.05;;;359.30;1894.40;;;;;;5016903;28;20022;-85
2022/01/03 11:18:27;;;;;;;21.75;14.70;;;359.10;1920.00;;;;;;5016639;28;20461;-85
2022/01/03 11:21:19;;;;;;;25.70;16.25;;;358.90;2099.20;;;;;;5016617;28;20405;-89
2022/01/03 11:24:01;;;;;;;26.33;17.48;;;358.80;1920.00;;;;;;5016745;28;20392;-86
2022/01/03 11:26:30;;;;;;;28.48;17.45;;;358.60;1996.80;;;;;;5016921;28;20366;-86
2022/01/03 11:28:57;;;;;;;25.65;15.80;;;358.50;2048.00;;;;;;5016798;28;20381;-91
2022/01/03 11:31:24;;;;;;;25.73;16.10;;;333.60;2048.00;;;;;;5017176;28;20366;-83
2022/01/03 11:33:51;;;;;;;28.95;18.58;;;333.50;2073.60;;;;;;5017412;28;20405;-87
2022/01/03 11:36:20;;;;;;;27.25;17.75;;;333.30;2124.80;;;;;;5016495;28;20437;-84
2022/01/03 11:38:48;;;;;;;25.33;17.13;;;333.30;2176.00;;;;;;5016900;28;20091;-83
2022/01/03 11:41:14;;;;;;;22.13;15.02;;;333.30;2176.00;;;;;;5017488;28;20358;-88
2022/01/03 11:43:43;;;;;;;35.88;21.27;;;333.30;2176.00;;;;;;5050002;28;20347;-89
2022/01/03 11:46:10;;;;;;;29.10;18.02;;;333.10;2227.20;;;;;;5016889;28;20390;-83
2022/01/03 11:48:38;;;;;;;37.65;22.15;;;333.10;2252.80;;;;;;5016448;28;20466;-85
2022/01/03 11:51:07;;;;;;;38.55;25.65;;;333.00;2278.40;;;;;;5016571;28;20427;-85
2022/01/03 11:53:37;;;;;;;38.90;27.05;;;333.00;2304.00;;;;;;5016386;28;20438;-88
2022/01/03 11:56:09;;;;;;;34.38;19.85;;;333.10;2304.00;;;;;;5016142;28;20439;-85
2022/01/03 11:59:00;;;;;;;31.95;21.13;;;333.00;2329.60;;;;;;5016153;28;20377;-84
2022/01/03 12:04:27;;;;;;;35.35;20.40;;;332.90;2329.60;;;;;;5034120;28;20044;-84
2022/01/03 12:07:14;;;;;;;28.73;19.80;;;332.90;2329.60;;;;;;5016074;28;20044;-82
2022/01/03 12:09:50;;;;;;;33.58;22.00;;;332.80;2329.60;;;;;;5033843;28;20112;-84
2022/01/03 12:12:32;;;;;;;37.47;23.85;;;332.80;2329.60;;;;;;5016110;28;20387;-87
2022/01/03 12:15:00;;;;;;;52.50;31.67;;;333.00;2329.60;;;;;;5016006;28;20488;-88
2022/01/03 12:17:55;;;;;;;50.22;32.50;;;333.30;2329.60;;;;;;5033679;28;20034;-88
2022/01/03 12:20:41;;;;;;;48.47;26.83;;;333.30;2329.60;;;;;;5014195;28;20477;-83
2022/01/03 12:23:09;;;;;;;40.13;24.67;;;333.30;2329.60;;;;;;5033540;28;20023;-82
2022/01/03 12:25:38;;;;;;;31.98;21.20;;;333.30;2329.60;;;;;;5016152;28;20347;-83
2022/01/03 12:28:07;;;;;;;41.67;25.38;;;333.20;2329.60;;;;;;5016559;28;20441;-83